»·PEaware :: N714TW KSNA-KMHV

N714TW :: KSNA-KMHV

FLIGHT INFORMATION

Flight Status: Arrived
Operator: Privately registered:
United States
More flights under this callsign
Pilot: Peter S. (23284)
Aircraft: CESSNA T210 TURBO CENTURION
(T210)
More flights by this aircraft type
Origin: KSNA John Wayne-Orange Co
United States
Destination: KMHV Mojave
United States
More flights between these airports :: More routes between these airports
Route: +PLZZA2 ELMOO V186 DARTS V459 BERRI V201 PMD
File this flight plan on PilotEdge
Remarks:
Altitude:
(Current/Filed)
8,000ft
Speed:
(Current/Filed)
150kts
Departed: 30-Nov-19 12:37 PM
Arrived: 30-Nov-19 01:32 PM
Distance/Time
Traveled:
84nm/0:55
Distance/Time
To Go:
Arrived

Flight Plot

Page will automatically refresh every two minutes.

Flight plan parsing failed; only flown route is shown


Map Options




Map Legend


Flown Route
Filed Route
Departure Airport
Arrival Airport
Navaid (VOR, NDB)
Fix

Horizontal Profiles

Position Reports

Time Latitude Longitude Heading Altitude Ground
Speed
30-Nov-19 12:16 33.676258 -117.870862 205 60ft 0kts
30-Nov-19 12:17 33.676258 -117.870862 206 60ft 0kts
30-Nov-19 12:18 33.676258 -117.870862 206 60ft 0kts
30-Nov-19 12:19 33.676258 -117.870862 206 60ft 0kts
30-Nov-19 12:20 33.676258 -117.870862 206 60ft 0kts
30-Nov-19 12:21 33.676258 -117.870862 206 60ft 0kts
30-Nov-19 12:22 33.676258 -117.870862 206 60ft 0kts
30-Nov-19 12:23 33.676258 -117.870862 206 60ft 0kts
30-Nov-19 12:24 33.676258 -117.870862 206 60ft 0kts
30-Nov-19 12:25 33.676258 -117.870862 206 60ft 0kts
30-Nov-19 12:26 33.676258 -117.870862 206 60ft 0kts
30-Nov-19 12:27 33.676257 -117.870862 205 60ft 0kts
30-Nov-19 12:28 33.676341 -117.870687 111 60ft 1kts
30-Nov-19 12:29 33.676338 -117.870678 111 60ft 0kts
30-Nov-19 12:30 33.676338 -117.870678 111 60ft 0kts
30-Nov-19 12:31 33.676338 -117.870678 111 60ft 0kts
30-Nov-19 12:32 33.676338 -117.870678 111 60ft 0kts
30-Nov-19 12:33 33.677107 -117.869449 27 60ft 25kts
30-Nov-19 12:34 33.681198 -117.866431 113 60ft 0kts
30-Nov-19 12:35 33.681195 -117.866422 114 60ft 0kts
30-Nov-19 12:36 33.664967 -117.875697 210 415ft 109kts
30-Nov-19 12:37 33.638575 -117.894722 204 1675ft 116kts
30-Nov-19 12:38 33.601044 -117.914785 204 2038ft 160kts
30-Nov-19 12:39 33.557357 -117.937613 203 1979ft 165kts
30-Nov-19 12:40 33.516862 -117.962331 231 2206ft 145kts
30-Nov-19 12:41 33.533238 -117.985562 9 3220ft 123kts
30-Nov-19 12:42 33.567130 -117.977618 13 4265ft 120kts
30-Nov-19 12:43 33.600737 -117.969690 9 4973ft 145kts
30-Nov-19 12:44 33.642055 -117.960865 8 4958ft 154kts
30-Nov-19 12:45 33.683944 -117.950891 10 4990ft 153kts
30-Nov-19 12:46 33.725107 -117.938051 25 5115ft 151kts
30-Nov-19 12:47 33.766728 -117.922785 17 5079ft 158kts
30-Nov-19 12:48 33.806915 -117.905111 18 5435ft 141kts
30-Nov-19 12:49 33.844453 -117.890590 15 5897ft 141kts
30-Nov-19 12:50 33.883328 -117.874372 18 6016ft 152kts
30-Nov-19 12:51 33.924060 -117.858664 16 6036ft 154kts
30-Nov-19 12:52 33.966872 -117.860384 346 6034ft 156kts
30-Nov-19 12:53 34.007165 -117.871000 349 6571ft 135kts
30-Nov-19 12:54 34.037502 -117.896026 300 7177ft 143kts
30-Nov-19 12:55 34.052912 -117.940684 301 8004ft 137kts
30-Nov-19 12:56 34.067912 -117.980458 301 8934ft 121kts
30-Nov-19 12:57 34.081147 -118.017996 295 9635ft 123kts
30-Nov-19 12:58 34.094232 -118.057690 294 10018ft 139kts
30-Nov-19 12:59 34.109968 -118.102879 289 10074ft 153kts
30-Nov-19 13:00 34.121780 -118.153164 291 10062ft 154kts
30-Nov-19 13:01 34.135824 -118.201941 286 10066ft 153kts
30-Nov-19 13:02 34.150442 -118.251242 288 10060ft 152kts
30-Nov-19 13:03 34.184946 -118.284614 330 10052ft 161kts
30-Nov-19 13:04 34.233525 -118.273215 15 10056ft 174kts
30-Nov-19 13:05 34.280759 -118.249528 18 10063ft 176kts
30-Nov-19 13:06 34.325073 -118.226196 18 10070ft 161kts
30-Nov-19 13:07 34.368004 -118.203552 18 10076ft 160kts
30-Nov-19 13:08 34.411097 -118.180792 18 10063ft 162kts
30-Nov-19 13:09 34.454507 -118.157829 19 9989ft 164kts
30-Nov-19 13:10 34.497984 -118.134763 18 10007ft 174kts
30-Nov-19 13:11 34.542430 -118.111157 18 10005ft 172kts
30-Nov-19 13:12 34.583156 -118.103086 306 9997ft 151kts
30-Nov-19 13:13 34.609007 -118.148647 301 9492ft 164kts
30-Nov-19 13:14 34.635188 -118.195377 301 8971ft 162kts
30-Nov-19 13:15 34.661289 -118.241148 301 8457ft 162kts
30-Nov-19 13:16 34.687165 -118.288131 302 8180ft 164kts
30-Nov-19 13:17 34.713155 -118.336492 302 8178ft 162kts
30-Nov-19 13:18 34.738250 -118.384021 302 8167ft 161kts
30-Nov-19 13:19 34.762845 -118.432231 302 8156ft 160kts
30-Nov-19 13:20 34.797184 -118.432577 51 7898ft 167kts
30-Nov-19 13:21 34.836536 -118.400048 24 7252ft 158kts
30-Nov-19 13:22 34.875537 -118.374587 36 6805ft 144kts
30-Nov-19 13:24 34.907483 -118.339645 41 6178ft 138kts
30-Nov-19 13:25 34.933070 -118.310875 43 6163ft 114kts
30-Nov-19 13:26 34.958832 -118.281457 42 5712ft 104kts
30-Nov-19 13:27 34.979492 -118.258074 41 4960ft 96kts
30-Nov-19 13:28 34.999624 -118.235125 43 4654ft 91kts
30-Nov-19 13:29 35.021895 -118.209689 44 3720ft 108kts
30-Nov-19 13:30 35.041264 -118.187584 44 3554ft 78kts
30-Nov-19 13:31 35.055834 -118.171001 49 3024ft 63kts
30-Nov-19 13:32 35.064336 -118.157023 105 2795ft 12kts
30-Nov-19 13:33 35.063871 -118.156405 136 2795ft 0kts
30-Nov-19 13:34 35.057594 -118.157295 86 2795ft 17kts
30-Nov-19 13:35 35.056827 -118.152047 78 2795ft 0kts
30-Nov-19 13:36 35.056827 -118.152048 78 2795ft 0kts
30-Nov-19 13:37 35.056827 -118.152048 78 2795ft 0kts
30-Nov-19 13:38 35.056827 -118.152048 78 2795ft 0kts
30-Nov-19 13:39 35.056827 -118.152048 78 2795ft 0kts
30-Nov-19 13:40 35.056827 -118.152048 78 2795ft 0kts

Navigation Log

Ident Type
Flight plan parsing failed, navigation log unavailable